sensor_id;sensor_type;location;lat;lon;timestamp;P1;durP1;ratioP1;P2;durP2;ratioP2
39772;SDS011;25451;51.960;6.250;2023-04-03T00:00:01;3.00;;;1.33;;
39772;SDS011;25451;51.960;6.250;2023-04-03T00:02:27;4.60;;;1.42;;
39772;SDS011;25451;51.960;6.250;2023-04-03T00:04:53;5.00;;;1.30;;
39772;SDS011;25451;51.960;6.250;2023-04-03T00:07:18;5.67;;;1.30;;
39772;SDS011;25451;51.960;6.250;2023-04-03T00:09:43;3.50;;;1.30;;
39772;SDS011;25451;51.960;6.250;2023-04-03T00:12:09;3.55;;;1.50;;
39772;SDS011;25451;51.960;6.250;2023-04-03T00:14:35;5.72;;;1.40;;
39772;SDS011;25451;51.960;6.250;2023-04-03T00:17:00;2.83;;;1.23;;
39772;SDS011;25451;51.960;6.250;2023-04-03T00:19:26;4.10;;;1.40;;
39772;SDS011;25451;51.960;6.250;2023-04-03T00:21:51;4.63;;;1.20;;
39772;SDS011;25451;51.960;6.250;2023-04-03T00:24:18;4.20;;;1.10;;
39772;SDS011;25451;51.960;6.250;2023-04-03T00:26:43;2.40;;;1.07;;
39772;SDS011;25451;51.960;6.250;2023-04-03T00:29:09;3.77;;;1.20;;
39772;SDS011;25451;51.960;6.250;2023-04-03T00:31:34;3.00;;;1.20;;
39772;SDS011;25451;51.960;6.250;2023-04-03T00:34:00;2.10;;;1.00;;
39772;SDS011;25451;51.960;6.250;2023-04-03T00:36:25;1.55;;;0.80;;
39772;SDS011;25451;51.960;6.250;2023-04-03T00:38:51;2.65;;;0.90;;
39772;SDS011;25451;51.960;6.250;2023-04-03T00:41:16;2.03;;;1.00;;
39772;SDS011;25451;51.960;6.250;2023-04-03T00:43:41;3.43;;;1.20;;
39772;SDS011;25451;51.960;6.250;2023-04-03T00:46:07;3.20;;;1.40;;
39772;SDS011;25451;51.960;6.250;2023-04-03T00:48:42;2.13;;;1.00;;
39772;SDS011;25451;51.960;6.250;2023-04-03T00:51:11;4.50;;;1.05;;
39772;SDS011;25451;51.960;6.250;2023-04-03T00:53:41;3.13;;;1.20;;
39772;SDS011;25451;51.960;6.250;2023-04-03T00:56:12;2.47;;;0.98;;
39772;SDS011;25451;51.960;6.250;2023-04-03T00:59:13;2.60;;;1.10;;
39772;SDS011;25451;51.960;6.250;2023-04-03T01:01:38;3.47;;;1.30;;
39772;SDS011;25451;51.960;6.250;2023-04-03T01:04:04;3.08;;;1.27;;
39772;SDS011;25451;51.960;6.250;2023-04-03T01:06:32;2.45;;;1.10;;
39772;SDS011;25451;51.960;6.250;2023-04-03T01:09:00;2.80;;;1.17;;
39772;SDS011;25451;51.960;6.250;2023-04-03T01:11:26;3.10;;;1.10;;
39772;SDS011;25451;51.960;6.250;2023-04-03T01:13:52;2.60;;;1.10;;
39772;SDS011;25451;51.960;6.250;2023-04-03T01:16:18;2.43;;;0.97;;
39772;SDS011;25451;51.960;6.250;2023-04-03T01:18:44;3.08;;;1.05;;
39772;SDS011;25451;51.960;6.250;2023-04-03T01:21:18;3.20;;;1.10;;
39772;SDS011;25451;51.960;6.250;2023-04-03T01:23:53;3.20;;;0.90;;
39772;SDS011;25451;51.960;6.250;2023-04-03T01:26:29;4.07;;;1.10;;
39772;SDS011;25451;51.960;6.250;2023-04-03T01:28:55;1.83;;;1.10;;
39772;SDS011;25451;51.960;6.250;2023-04-03T01:31:27;3.10;;;1.00;;
39772;SDS011;25451;51.960;6.250;2023-04-03T01:33:58;3.45;;;1.20;;
39772;SDS011;25451;51.960;6.250;2023-04-03T01:36:25;2.47;;;1.10;;
39772;SDS011;25451;51.960;6.250;2023-04-03T01:38:53;2.15;;;1.13;;
39772;SDS011;25451;51.960;6.250;2023-04-03T01:41:18;2.93;;;1.10;;
39772;SDS011;25451;51.960;6.250;2023-04-03T01:43:46;3.85;;;1.20;;
39772;SDS011;25451;51.960;6.250;2023-04-03T01:46:12;3.47;;;1.17;;
39772;SDS011;25451;51.960;6.250;2023-04-03T01:48:37;3.00;;;1.40;;
39772;SDS011;25451;51.960;6.250;2023-04-03T01:51:03;3.65;;;1.30;;
39772;SDS011;25451;51.960;6.250;2023-04-03T01:53:28;4.60;;;1.20;;
39772;SDS011;25451;51.960;6.250;2023-04-03T01:55:54;7.40;;;1.37;;
39772;SDS011;25451;51.960;6.250;2023-04-03T01:58:19;4.27;;;1.30;;
39772;SDS011;25451;51.960;6.250;2023-04-03T02:00:45;4.13;;;1.20;;
39772;SDS011;25451;51.960;6.250;2023-04-03T02:03:10;2.10;;;1.05;;
39772;SDS011;25451;51.960;6.250;2023-04-03T02:05:36;4.80;;;1.30;;
39772;SDS011;25451;51.960;6.250;2023-04-03T02:08:01;3.70;;;1.30;;
39772;SDS011;25451;51.960;6.250;2023-04-03T02:10:26;6.23;;;1.27;;
39772;SDS011;25451;51.960;6.250;2023-04-03T02:12:52;4.57;;;1.20;;
39772;SDS011;25451;51.960;6.250;2023-04-03T02:15:17;4.30;;;1.20;;
39772;SDS011;25451;51.960;6.250;2023-04-03T02:17:43;2.67;;;1.10;;
39772;SDS011;25451;51.960;6.250;2023-04-03T02:20:09;3.80;;;1.38;;
39772;SDS011;25451;51.960;6.250;2023-04-03T02:22:35;3.07;;;1.23;;
39772;SDS011;25451;51.960;6.250;2023-04-03T02:25:00;2.65;;;1.10;;
39772;SDS011;25451;51.960;6.250;2023-04-03T02:27:26;4.03;;;1.27;;
39772;SDS011;25451;51.960;6.250;2023-04-03T02:29:51;4.03;;;1.40;;
39772;SDS011;25451;51.960;6.250;2023-04-03T02:32:17;2.47;;;1.03;;
39772;SDS011;25451;51.960;6.250;2023-04-03T02:34:42;5.27;;;1.20;;
39772;SDS011;25451;51.960;6.250;2023-04-03T02:37:07;4.27;;;1.10;;
39772;SDS011;25451;51.960;6.250;2023-04-03T02:39:33;2.50;;;1.20;;
39772;SDS011;25451;51.960;6.250;2023-04-03T02:41:58;1.92;;;1.05;;
39772;SDS011;25451;51.960;6.250;2023-04-03T02:44:24;7.05;;;1.55;;
39772;SDS011;25451;51.960;6.250;2023-04-03T02:46:49;3.03;;;1.13;;
39772;SDS011;25451;51.960;6.250;2023-04-03T02:49:15;3.70;;;1.20;;
39772;SDS011;25451;51.960;6.250;2023-04-03T02:51:40;2.40;;;1.30;;
39772;SDS011;25451;51.960;6.250;2023-04-03T02:54:06;4.88;;;1.33;;
39772;SDS011;25451;51.960;6.250;2023-04-03T02:56:31;4.33;;;1.10;;
39772;SDS011;25451;51.960;6.250;2023-04-03T02:58:57;3.40;;;1.10;;
39772;SDS011;25451;51.960;6.250;2023-04-03T03:01:22;5.97;;;1.60;;
39772;SDS011;25451;51.960;6.250;2023-04-03T03:03:47;1.87;;;1.10;;
39772;SDS011;25451;51.960;6.250;2023-04-03T03:06:13;3.40;;;1.13;;
39772;SDS011;25451;51.960;6.250;2023-04-03T03:08:41;3.13;;;1.50;;
39772;SDS011;25451;51.960;6.250;2023-04-03T03:11:07;2.90;;;1.13;;
39772;SDS011;25451;51.960;6.250;2023-04-03T03:13:32;6.67;;;1.20;;
39772;SDS011;25451;51.960;6.250;2023-04-03T03:15:58;3.15;;;1.10;;
39772;SDS011;25451;51.960;6.250;2023-04-03T03:18:24;3.60;;;1.10;;
39772;SDS011;25451;51.960;6.250;2023-04-03T03:20:54;3.33;;;1.30;;
39772;SDS011;25451;51.960;6.250;2023-04-03T03:23:22;4.45;;;1.48;;
39772;SDS011;25451;51.960;6.250;2023-04-03T03:25:49;3.55;;;1.10;;
39772;SDS011;25451;51.960;6.250;2023-04-03T03:28:14;3.93;;;1.33;;
39772;SDS011;25451;51.960;6.250;2023-04-03T03:30:39;3.60;;;1.20;;
39772;SDS011;25451;51.960;6.250;2023-04-03T03:33:05;3.07;;;1.40;;
39772;SDS011;25451;51.960;6.250;2023-04-03T03:35:30;3.33;;;1.20;;
39772;SDS011;25451;51.960;6.250;2023-04-03T03:37:55;2.80;;;1.10;;
39772;SDS011;25451;51.960;6.250;2023-04-03T03:40:21;2.35;;;1.00;;
39772;SDS011;25451;51.960;6.250;2023-04-03T03:42:46;2.50;;;1.20;;
39772;SDS011;25451;51.960;6.250;2023-04-03T03:45:11;2.63;;;1.10;;
39772;SDS011;25451;51.960;6.250;2023-04-03T03:47:37;1.90;;;1.00;;
39772;SDS011;25451;51.960;6.250;2023-04-03T03:50:02;5.37;;;1.10;;
39772;SDS011;25451;51.960;6.250;2023-04-03T03:52:28;5.25;;;1.45;;
39772;SDS011;25451;51.960;6.250;2023-04-03T03:54:55;5.23;;;1.30;;
39772;SDS011;25451;51.960;6.250;2023-04-03T03:57:20;5.80;;;1.38;;
39772;SDS011;25451;51.960;6.250;2023-04-03T03:59:46;2.50;;;1.23;;
39772;SDS011;25451;51.960;6.250;2023-04-03T04:02:13;3.15;;;1.30;;
39772;SDS011;25451;51.960;6.250;2023-04-03T04:04:38;3.10;;;1.07;;
39772;SDS011;25451;51.960;6.250;2023-04-03T04:07:04;5.90;;;1.30;;
39772;SDS011;25451;51.960;6.250;2023-04-03T04:09:29;3.27;;;1.40;;
39772;SDS011;25451;51.960;6.250;2023-04-03T04:11:54;3.97;;;1.30;;
39772;SDS011;25451;51.960;6.250;2023-04-03T04:14:20;4.70;;;1.25;;
39772;SDS011;25451;51.960;6.250;2023-04-03T04:16:46;5.57;;;1.50;;
39772;SDS011;25451;51.960;6.250;2023-04-03T04:19:12;4.80;;;1.55;;
39772;SDS011;25451;51.960;6.250;2023-04-03T04:21:37;2.10;;;1.10;;
39772;SDS011;25451;51.960;6.250;2023-04-03T04:24:03;3.80;;;1.30;;
39772;SDS011;25451;51.960;6.250;2023-04-03T04:26:28;2.22;;;1.05;;
39772;SDS011;25451;51.960;6.250;2023-04-03T04:28:54;4.17;;;1.00;;
39772;SDS011;25451;51.960;6.250;2023-04-03T04:31:19;2.87;;;1.00;;
39772;SDS011;25451;51.960;6.250;2023-04-03T04:33:44;3.53;;;1.40;;
39772;SDS011;25451;51.960;6.250;2023-04-03T04:36:10;3.88;;;1.40;;
39772;SDS011;25451;51.960;6.250;2023-04-03T04:38:35;5.90;;;1.40;;
39772;SDS011;25451;51.960;6.250;2023-04-03T04:41:01;4.27;;;1.20;;
39772;SDS011;25451;51.960;6.250;2023-04-03T04:43:26;3.93;;;1.27;;
39772;SDS011;25451;51.960;6.250;2023-04-03T04:46:01;3.73;;;1.20;;
39772;SDS011;25451;51.960;6.250;2023-04-03T04:48:27;2.10;;;1.10;;
39772;SDS011;25451;51.960;6.250;2023-04-03T04:50:53;2.80;;;1.30;;
39772;SDS011;25451;51.960;6.250;2023-04-03T04:53:18;4.67;;;1.50;;
39772;SDS011;25451;51.960;6.250;2023-04-03T04:55:43;3.50;;;1.10;;
39772;SDS011;25451;51.960;6.250;2023-04-03T04:58:08;3.83;;;1.20;;
39772;SDS011;25451;51.960;6.250;2023-04-03T05:00:34;2.43;;;1.00;;
39772;SDS011;25451;51.960;6.250;2023-04-03T05:02:59;4.40;;;1.13;;
39772;SDS011;25451;51.960;6.250;2023-04-03T05:05:24;6.25;;;1.20;;
39772;SDS011;25451;51.960;6.250;2023-04-03T05:07:50;2.88;;;1.20;;
39772;SDS011;25451;51.960;6.250;2023-04-03T05:10:15;3.40;;;1.40;;
39772;SDS011;25451;51.960;6.250;2023-04-03T05:12:40;3.10;;;1.10;;
39772;SDS011;25451;51.960;6.250;2023-04-03T05:15:06;5.90;;;1.07;;
39772;SDS011;25451;51.960;6.250;2023-04-03T05:17:32;5.10;;;1.33;;
39772;SDS011;25451;51.960;6.250;2023-04-03T05:19:57;5.20;;;1.50;;
39772;SDS011;25451;51.960;6.250;2023-04-03T05:22:22;4.10;;;1.27;;
39772;SDS011;25451;51.960;6.250;2023-04-03T05:24:47;2.87;;;1.17;;
39772;SDS011;25451;51.960;6.250;2023-04-03T05:27:13;3.23;;;1.10;;
39772;SDS011;25451;51.960;6.250;2023-04-03T05:29:38;3.47;;;1.10;;
39772;SDS011;25451;51.960;6.250;2023-04-03T05:32:03;2.93;;;1.17;;
39772;SDS011;25451;51.960;6.250;2023-04-03T05:34:29;5.57;;;1.20;;
39772;SDS011;25451;51.960;6.250;2023-04-03T05:36:54;2.90;;;1.20;;
39772;SDS011;25451;51.960;6.250;2023-04-03T05:39:19;3.73;;;1.17;;
39772;SDS011;25451;51.960;6.250;2023-04-03T05:41:45;3.80;;;1.57;;
39772;SDS011;25451;51.960;6.250;2023-04-03T05:44:10;3.77;;;1.40;;
39772;SDS011;25451;51.960;6.250;2023-04-03T05:46:35;5.53;;;1.60;;
39772;SDS011;25451;51.960;6.250;2023-04-03T05:49:00;3.57;;;1.40;;
39772;SDS011;25451;51.960;6.250;2023-04-03T05:51:28;1.70;;;1.00;;
39772;SDS011;25451;51.960;6.250;2023-04-03T05:53:59;2.22;;;1.00;;
39772;SDS011;25451;51.960;6.250;2023-04-03T05:56:30;5.53;;;1.20;;
39772;SDS011;25451;51.960;6.250;2023-04-03T05:58:56;3.20;;;1.20;;
39772;SDS011;25451;51.960;6.250;2023-04-03T06:01:21;2.47;;;0.95;;
39772;SDS011;25451;51.960;6.250;2023-04-03T06:03:48;6.72;;;1.15;;
39772;SDS011;25451;51.960;6.250;2023-04-03T06:06:14;3.23;;;1.20;;
39772;SDS011;25451;51.960;6.250;2023-04-03T06:08:40;3.28;;;1.10;;
39772;SDS011;25451;51.960;6.250;2023-04-03T06:11:06;3.47;;;0.90;;
39772;SDS011;25451;51.960;6.250;2023-04-03T06:13:33;5.70;;;1.40;;
39772;SDS011;25451;51.960;6.250;2023-04-03T06:16:00;4.45;;;1.27;;
39772;SDS011;25451;51.960;6.250;2023-04-03T06:18:25;3.67;;;1.40;;
39772;SDS011;25451;51.960;6.250;2023-04-03T06:20:51;6.27;;;1.50;;
39772;SDS011;25451;51.960;6.250;2023-04-03T06:23:16;3.20;;;1.20;;
39772;SDS011;25451;51.960;6.250;2023-04-03T06:25:42;7.55;;;1.35;;
39772;SDS011;25451;51.960;6.250;2023-04-03T06:28:08;4.17;;;1.17;;
39772;SDS011;25451;51.960;6.250;2023-04-03T06:30:35;4.68;;;1.45;;
39772;SDS011;25451;51.960;6.250;2023-04-03T06:33:01;3.40;;;1.00;;
39772;SDS011;25451;51.960;6.250;2023-04-03T06:35:26;3.17;;;1.10;;
39772;SDS011;25451;51.960;6.250;2023-04-03T06:37:53;2.92;;;1.13;;
39772;SDS011;25451;51.960;6.250;2023-04-03T06:40:20;4.10;;;1.30;;
39772;SDS011;25451;51.960;6.250;2023-04-03T06:42:47;5.78;;;1.27;;
39772;SDS011;25451;51.960;6.250;2023-04-03T06:45:12;2.77;;;1.13;;
39772;SDS011;25451;51.960;6.250;2023-04-03T06:47:38;3.40;;;1.40;;
39772;SDS011;25451;51.960;6.250;2023-04-03T06:50:03;6.60;;;1.50;;
39772;SDS011;25451;51.960;6.250;2023-04-03T06:52:29;4.22;;;1.20;;
39772;SDS011;25451;51.960;6.250;2023-04-03T06:54:54;3.00;;;1.00;;
39772;SDS011;25451;51.960;6.250;2023-04-03T06:57:22;2.55;;;1.17;;
39772;SDS011;25451;51.960;6.250;2023-04-03T06:59:48;5.20;;;1.10;;
39772;SDS011;25451;51.960;6.250;2023-04-03T07:02:13;2.43;;;1.17;;
39772;SDS011;25451;51.960;6.250;2023-04-03T07:04:38;8.17;;;1.40;;
39772;SDS011;25451;51.960;6.250;2023-04-03T07:07:04;2.77;;;1.13;;
39772;SDS011;25451;51.960;6.250;2023-04-03T07:09:29;4.53;;;1.33;;
39772;SDS011;25451;51.960;6.250;2023-04-03T07:11:55;4.43;;;1.40;;
39772;SDS011;25451;51.960;6.250;2023-04-03T07:14:20;4.17;;;1.20;;
39772;SDS011;25451;51.960;6.250;2023-04-03T07:16:46;4.60;;;1.10;;
39772;SDS011;25451;51.960;6.250;2023-04-03T07:19:11;4.57;;;1.47;;
39772;SDS011;25451;51.960;6.250;2023-04-03T07:21:37;4.33;;;1.30;;
39772;SDS011;25451;51.960;6.250;2023-04-03T07:24:02;5.77;;;1.30;;
39772;SDS011;25451;51.960;6.250;2023-04-03T07:26:28;4.68;;;1.30;;
39772;SDS011;25451;51.960;6.250;2023-04-03T07:28:53;5.00;;;1.20;;
39772;SDS011;25451;51.960;6.250;2023-04-03T07:31:18;4.30;;;1.20;;
39772;SDS011;25451;51.960;6.250;2023-04-03T07:33:44;3.93;;;1.20;;
39772;SDS011;25451;51.960;6.250;2023-04-03T07:36:10;3.22;;;0.95;;
39772;SDS011;25451;51.960;6.250;2023-04-03T07:38:40;5.30;;;1.20;;
39772;SDS011;25451;51.960;6.250;2023-04-03T07:41:06;3.30;;;1.30;;
39772;SDS011;25451;51.960;6.250;2023-04-03T07:43:31;4.70;;;1.07;;
39772;SDS011;25451;51.960;6.250;2023-04-03T07:45:57;4.40;;;1.05;;
39772;SDS011;25451;51.960;6.250;2023-04-03T07:48:23;4.20;;;1.13;;
39772;SDS011;25451;51.960;6.250;2023-04-03T07:50:50;2.97;;;1.00;;
39772;SDS011;25451;51.960;6.250;2023-04-03T07:53:16;4.53;;;1.13;;
39772;SDS011;25451;51.960;6.250;2023-04-03T07:55:42;4.07;;;0.98;;
39772;SDS011;25451;51.960;6.250;2023-04-03T07:58:10;4.43;;;1.10;;
39772;SDS011;25451;51.960;6.250;2023-04-03T08:00:37;3.10;;;0.98;;
39772;SDS011;25451;51.960;6.250;2023-04-03T08:03:03;1.63;;;0.93;;
39772;SDS011;25451;51.960;6.250;2023-04-03T08:05:29;3.45;;;1.05;;
39772;SDS011;25451;51.960;6.250;2023-04-03T08:07:54;2.23;;;0.90;;
39772;SDS011;25451;51.960;6.250;2023-04-03T08:10:19;2.93;;;0.90;;
39772;SDS011;25451;51.960;6.250;2023-04-03T08:12:46;2.30;;;0.90;;
39772;SDS011;25451;51.960;6.250;2023-04-03T08:15:12;2.60;;;0.90;;
39772;SDS011;25451;51.960;6.250;2023-04-03T08:17:37;2.53;;;1.20;;
39772;SDS011;25451;51.960;6.250;2023-04-03T08:20:04;4.40;;;1.20;;
39772;SDS011;25451;51.960;6.250;2023-04-03T08:22:31;3.75;;;0.95;;
39772;SDS011;25451;51.960;6.250;2023-04-03T08:24:56;1.80;;;1.00;;
39772;SDS011;25451;51.960;6.250;2023-04-03T08:27:22;4.03;;;0.90;;
39772;SDS011;25451;51.960;6.250;2023-04-03T08:29:49;3.22;;;1.00;;
39772;SDS011;25451;51.960;6.250;2023-04-03T08:32:14;3.27;;;0.90;;
39772;SDS011;25451;51.960;6.250;2023-04-03T08:34:39;3.63;;;1.00;;
39772;SDS011;25451;51.960;6.250;2023-04-03T08:37:05;1.77;;;0.80;;
39772;SDS011;25451;51.960;6.250;2023-04-03T08:39:31;3.40;;;1.07;;
39772;SDS011;25451;51.960;6.250;2023-04-03T08:41:57;1.58;;;0.70;;
39772;SDS011;25451;51.960;6.250;2023-04-03T08:44:39;2.87;;;0.90;;
39772;SDS011;25451;51.960;6.250;2023-04-03T08:49:57;2.70;;;0.70;;
39772;SDS011;25451;51.960;6.250;2023-04-03T08:58:01;2.07;;;0.77;;
39772;SDS011;25451;51.960;6.250;2023-04-03T09:00:34;2.30;;;0.80;;
39772;SDS011;25451;51.960;6.250;2023-04-03T09:03:11;1.88;;;0.75;;
39772;SDS011;25451;51.960;6.250;2023-04-03T09:05:43;2.67;;;0.80;;
39772;SDS011;25451;51.960;6.250;2023-04-03T09:08:19;3.25;;;0.95;;
39772;SDS011;25451;51.960;6.250;2023-04-03T09:13:57;3.72;;;0.82;;
39772;SDS011;25451;51.960;6.250;2023-04-03T09:16:30;1.13;;;0.60;;
39772;SDS011;25451;51.960;6.250;2023-04-03T09:19:28;2.50;;;0.70;;
39772;SDS011;25451;51.960;6.250;2023-04-03T09:25:02;2.10;;;0.70;;
39772;SDS011;25451;51.960;6.250;2023-04-03T09:27:35;2.78;;;0.60;;
39772;SDS011;25451;51.960;6.250;2023-04-03T09:30:00;1.15;;;0.60;;
39772;SDS011;25451;51.960;6.250;2023-04-03T09:32:30;2.27;;;0.60;;
39772;SDS011;25451;51.960;6.250;2023-04-03T09:35:42;3.42;;;0.80;;
39772;SDS011;25451;51.960;6.250;2023-04-03T09:40:37;1.83;;;0.70;;
39772;SDS011;25451;51.960;6.250;2023-04-03T09:45:41;1.58;;;0.70;;
39772;SDS011;25451;51.960;6.250;2023-04-03T09:50:52;2.20;;;0.65;;
39772;SDS011;25451;51.960;6.250;2023-04-03T09:56:25;2.63;;;0.70;;
39772;SDS011;25451;51.960;6.250;2023-04-03T10:06:47;1.27;;;0.70;;
39772;SDS011;25451;51.960;6.250;2023-04-03T10:12:01;1.40;;;0.70;;
39772;SDS011;25451;51.960;6.250;2023-04-03T10:14:36;1.58;;;0.60;;
39772;SDS011;25451;51.960;6.250;2023-04-03T10:31:19;2.33;;;0.88;;
39772;SDS011;25451;51.960;6.250;2023-04-03T10:37:04;1.63;;;0.60;;
39772;SDS011;25451;51.960;6.250;2023-04-03T10:44:34;1.20;;;0.50;;
39772;SDS011;25451;51.960;6.250;2023-04-03T10:47:11;2.07;;;0.70;;
39772;SDS011;25451;51.960;6.250;2023-04-03T10:49:47;3.00;;;0.70;;
39772;SDS011;25451;51.960;6.250;2023-04-03T10:55:44;1.27;;;0.60;;
39772;SDS011;25451;51.960;6.250;2023-04-03T10:58:28;2.70;;;0.65;;
39772;SDS011;25451;51.960;6.250;2023-04-03T11:01:01;2.00;;;0.60;;
39772;SDS011;25451;51.960;6.250;2023-04-03T11:03:35;2.67;;;0.73;;
39772;SDS011;25451;51.960;6.250;2023-04-03T11:06:06;1.38;;;0.60;;
39772;SDS011;25451;51.960;6.250;2023-04-03T11:11:22;1.67;;;0.70;;
39772;SDS011;25451;51.960;6.250;2023-04-03T11:13:53;0.98;;;0.70;;
39772;SDS011;25451;51.960;6.250;2023-04-03T11:16:24;2.78;;;0.80;;
39772;SDS011;25451;51.960;6.250;2023-04-03T11:19:02;1.33;;;0.68;;
39772;SDS011;25451;51.960;6.250;2023-04-03T11:24:36;1.42;;;0.60;;
39772;SDS011;25451;51.960;6.250;2023-04-03T11:27:08;2.22;;;0.80;;
39772;SDS011;25451;51.960;6.250;2023-04-03T11:29:41;2.40;;;0.60;;
39772;SDS011;25451;51.960;6.250;2023-04-03T11:34:57;6.05;;;0.68;;
39772;SDS011;25451;51.960;6.250;2023-04-03T11:37:43;2.53;;;0.68;;
39772;SDS011;25451;51.960;6.250;2023-04-03T11:42:42;1.63;;;0.70;;
39772;SDS011;25451;51.960;6.250;2023-04-03T11:53:41;1.70;;;0.73;;
39772;SDS011;25451;51.960;6.250;2023-04-03T11:56:29;3.58;;;0.90;;
39772;SDS011;25451;51.960;6.250;2023-04-03T12:01:59;2.80;;;0.70;;
39772;SDS011;25451;51.960;6.250;2023-04-03T12:04:24;1.80;;;0.68;;
39772;SDS011;25451;51.960;6.250;2023-04-03T12:06:53;3.10;;;0.80;;
39772;SDS011;25451;51.960;6.250;2023-04-03T12:11:56;1.85;;;0.70;;
39772;SDS011;25451;51.960;6.250;2023-04-03T12:14:25;3.25;;;1.02;;
39772;SDS011;25451;51.960;6.250;2023-04-03T12:16:55;2.65;;;0.70;;
39772;SDS011;25451;51.960;6.250;2023-04-03T12:19:33;1.83;;;0.80;;
39772;SDS011;25451;51.960;6.250;2023-04-03T12:24:28;2.20;;;0.77;;
39772;SDS011;25451;51.960;6.250;2023-04-03T12:29:50;2.88;;;0.70;;
39772;SDS011;25451;51.960;6.250;2023-04-03T12:46:21;2.63;;;0.70;;
39772;SDS011;25451;51.960;6.250;2023-04-03T12:48:49;2.35;;;0.80;;
39772;SDS011;25451;51.960;6.250;2023-04-03T12:51:22;2.07;;;0.80;;
39772;SDS011;25451;51.960;6.250;2023-04-03T12:54:02;3.63;;;1.00;;
39772;SDS011;25451;51.960;6.250;2023-04-03T12:56:38;2.60;;;0.88;;
39772;SDS011;25451;51.960;6.250;2023-04-03T12:59:20;2.47;;;0.70;;
39772;SDS011;25451;51.960;6.250;2023-04-03T13:01:56;2.63;;;0.90;;
39772;SDS011;25451;51.960;6.250;2023-04-03T13:04:23;2.27;;;0.80;;
39772;SDS011;25451;51.960;6.250;2023-04-03T13:06:49;4.32;;;0.80;;
39772;SDS011;25451;51.960;6.250;2023-04-03T13:09:20;1.70;;;0.80;;
39772;SDS011;25451;51.960;6.250;2023-04-03T13:11:52;2.63;;;0.70;;
39772;SDS011;25451;51.960;6.250;2023-04-03T13:14:38;2.17;;;0.80;;
39772;SDS011;25451;51.960;6.250;2023-04-03T13:17:15;3.10;;;0.80;;
39772;SDS011;25451;51.960;6.250;2023-04-03T13:19:41;4.25;;;0.80;;
39772;SDS011;25451;51.960;6.250;2023-04-03T13:22:10;2.97;;;0.80;;
39772;SDS011;25451;51.960;6.250;2023-04-03T13:24:38;4.20;;;0.70;;
39772;SDS011;25451;51.960;6.250;2023-04-03T13:27:04;2.55;;;0.80;;
39772;SDS011;25451;51.960;6.250;2023-04-03T13:29:34;2.97;;;0.90;;
39772;SDS011;25451;51.960;6.250;2023-04-03T13:32:02;1.88;;;0.68;;
39772;SDS011;25451;51.960;6.250;2023-04-03T13:34:35;5.10;;;0.90;;
39772;SDS011;25451;51.960;6.250;2023-04-03T13:37:03;2.03;;;0.77;;
39772;SDS011;25451;51.960;6.250;2023-04-03T13:39:30;1.45;;;0.70;;
39772;SDS011;25451;51.960;6.250;2023-04-03T13:41:58;2.63;;;1.02;;
39772;SDS011;25451;51.960;6.250;2023-04-03T13:44:34;2.40;;;0.80;;
39772;SDS011;25451;51.960;6.250;2023-04-03T13:49:34;2.55;;;0.82;;
39772;SDS011;25451;51.960;6.250;2023-04-03T13:52:23;2.33;;;0.80;;
39772;SDS011;25451;51.960;6.250;2023-04-03T13:54:57;3.35;;;0.95;;
39772;SDS011;25451;51.960;6.250;2023-04-03T13:57:25;2.85;;;0.98;;
39772;SDS011;25451;51.960;6.250;2023-04-03T13:59:50;1.92;;;0.80;;
39772;SDS011;25451;51.960;6.250;2023-04-03T14:02:34;2.37;;;1.10;;
39772;SDS011;25451;51.960;6.250;2023-04-03T14:05:04;2.60;;;0.80;;
39772;SDS011;25451;51.960;6.250;2023-04-03T14:07:33;4.63;;;1.02;;
39772;SDS011;25451;51.960;6.250;2023-04-03T14:09:58;4.37;;;0.83;;
39772;SDS011;25451;51.960;6.250;2023-04-03T14:12:42;2.30;;;0.80;;
39772;SDS011;25451;51.960;6.250;2023-04-03T14:15:24;2.40;;;0.90;;
39772;SDS011;25451;51.960;6.250;2023-04-03T14:17:52;6.17;;;1.20;;
39772;SDS011;25451;51.960;6.250;2023-04-03T14:20:19;1.90;;;0.93;;
39772;SDS011;25451;51.960;6.250;2023-04-03T14:22:46;4.47;;;1.10;;
39772;SDS011;25451;51.960;6.250;2023-04-03T14:25:13;4.97;;;1.00;;
39772;SDS011;25451;51.960;6.250;2023-04-03T14:27:41;2.97;;;0.90;;
39772;SDS011;25451;51.960;6.250;2023-04-03T14:30:13;3.60;;;1.00;;
39772;SDS011;25451;51.960;6.250;2023-04-03T14:32:40;2.85;;;0.82;;
39772;SDS011;25451;51.960;6.250;2023-04-03T14:35:06;3.83;;;1.00;;
39772;SDS011;25451;51.960;6.250;2023-04-03T14:37:31;2.42;;;1.00;;
39772;SDS011;25451;51.960;6.250;2023-04-03T14:39:58;2.10;;;0.90;;
39772;SDS011;25451;51.960;6.250;2023-04-03T14:42:29;2.75;;;0.88;;
39772;SDS011;25451;51.960;6.250;2023-04-03T14:44:58;4.80;;;0.93;;
39772;SDS011;25451;51.960;6.250;2023-04-03T14:47:26;2.45;;;0.98;;
39772;SDS011;25451;51.960;6.250;2023-04-03T14:49:53;2.67;;;0.90;;
39772;SDS011;25451;51.960;6.250;2023-04-03T14:52:20;2.80;;;1.05;;
39772;SDS011;25451;51.960;6.250;2023-04-03T14:54:46;3.97;;;1.02;;
39772;SDS011;25451;51.960;6.250;2023-04-03T14:57:13;2.50;;;0.83;;
39772;SDS011;25451;51.960;6.250;2023-04-03T14:59:39;3.50;;;1.00;;
39772;SDS011;25451;51.960;6.250;2023-04-03T15:02:11;3.57;;;1.50;;
39772;SDS011;25451;51.960;6.250;2023-04-03T15:04:50;3.97;;;1.00;;
39772;SDS011;25451;51.960;6.250;2023-04-03T15:07:15;3.37;;;1.00;;
39772;SDS011;25451;51.960;6.250;2023-04-03T15:09:41;2.90;;;0.90;;
39772;SDS011;25451;51.960;6.250;2023-04-03T15:12:07;3.38;;;1.13;;
39772;SDS011;25451;51.960;6.250;2023-04-03T15:14:33;2.92;;;1.00;;
39772;SDS011;25451;51.960;6.250;2023-04-03T15:16:58;2.47;;;1.00;;
39772;SDS011;25451;51.960;6.250;2023-04-03T15:19:24;2.93;;;1.07;;
39772;SDS011;25451;51.960;6.250;2023-04-03T15:21:49;4.07;;;1.10;;
39772;SDS011;25451;51.960;6.250;2023-04-03T15:24:14;3.93;;;0.90;;
39772;SDS011;25451;51.960;6.250;2023-04-03T15:26:40;2.30;;;0.90;;
39772;SDS011;25451;51.960;6.250;2023-04-03T15:29:06;4.90;;;1.10;;
39772;SDS011;25451;51.960;6.250;2023-04-03T15:31:32;4.45;;;1.15;;
39772;SDS011;25451;51.960;6.250;2023-04-03T15:33:57;2.85;;;1.02;;
39772;SDS011;25451;51.960;6.250;2023-04-03T15:36:22;2.90;;;0.90;;
39772;SDS011;25451;51.960;6.250;2023-04-03T15:38:48;2.10;;;0.90;;
39772;SDS011;25451;51.960;6.250;2023-04-03T15:41:14;2.88;;;1.00;;
39772;SDS011;25451;51.960;6.250;2023-04-03T15:43:39;1.70;;;0.80;;
39772;SDS011;25451;51.960;6.250;2023-04-03T15:46:04;3.80;;;1.03;;
39772;SDS011;25451;51.960;6.250;2023-04-03T15:48:30;2.27;;;1.00;;
39772;SDS011;25451;51.960;6.250;2023-04-03T15:50:55;2.80;;;1.10;;
39772;SDS011;25451;51.960;6.250;2023-04-03T15:53:21;6.10;;;1.20;;
39772;SDS011;25451;51.960;6.250;2023-04-03T15:55:46;3.23;;;1.03;;
39772;SDS011;25451;51.960;6.250;2023-04-03T15:58:11;3.50;;;1.30;;
39772;SDS011;25451;51.960;6.250;2023-04-03T16:00:37;4.20;;;1.20;;
39772;SDS011;25451;51.960;6.250;2023-04-03T16:03:08;3.58;;;1.20;;
39772;SDS011;25451;51.960;6.250;2023-04-03T16:05:36;2.40;;;1.10;;
39772;SDS011;25451;51.960;6.250;2023-04-03T16:08:03;2.50;;;1.00;;
39772;SDS011;25451;51.960;6.250;2023-04-03T16:10:29;3.60;;;0.90;;
39772;SDS011;25451;51.960;6.250;2023-04-03T16:12:55;3.22;;;1.15;;
39772;SDS011;25451;51.960;6.250;2023-04-03T16:15:21;2.03;;;1.00;;
39772;SDS011;25451;51.960;6.250;2023-04-03T16:17:47;5.70;;;1.10;;
39772;SDS011;25451;51.960;6.250;2023-04-03T16:20:13;3.92;;;1.15;;
39772;SDS011;25451;51.960;6.250;2023-04-03T16:22:39;2.00;;;1.00;;
39772;SDS011;25451;51.960;6.250;2023-04-03T16:25:05;3.65;;;0.95;;
39772;SDS011;25451;51.960;6.250;2023-04-03T16:27:32;2.38;;;0.88;;
39772;SDS011;25451;51.960;6.250;2023-04-03T16:29:58;3.07;;;1.03;;
39772;SDS011;25451;51.960;6.250;2023-04-03T16:32:23;3.03;;;1.00;;
39772;SDS011;25451;51.960;6.250;2023-04-03T16:34:52;2.90;;;1.10;;
39772;SDS011;25451;51.960;6.250;2023-04-03T16:37:17;2.47;;;0.90;;
39772;SDS011;25451;51.960;6.250;2023-04-03T16:39:43;2.47;;;1.00;;